Terminal Aerodrome Forecast
Issued by NWS Sterling, VA

Home | Current Version | Previous Version | Text Only | Print | Product List | Glossary On
Versions: 1 2 3 4 5 6 7 8 9 10 11 12 13 14 15 16 17 18 19 20 21 22 23 24 25 26 27 28
000
FTUS41 KLWX 050858 AAA
TAFDCA
TAF AMD
KDCA 050858Z 0509/0606 05007KT P6SM OVC030
     FM051500 07010KT P6SM BKN035
     FM051800 08011KT P6SM SCT050
     FM052100 09010KT P6SM SCT250
     FM060300 10006KT P6SM SCT250=

USA.gov is the U.S. government's official web portal to all federal, state and local government web resources and services.